^^
Meteo Knjazevac Station Historical Data
Daily Summary for August 30, 2021 Units:  Metric    English   Both
Daily Weekly Monthly Yearly Custom
  High: Low: Average:
Temperature: 16.2 °C 9.7 °C 13 °C
Dew Point: 12.6 °C 8.8 °C 10.6 °C
Humidity: 96% 73% 85%
Wind Speed: 16.1km/h 0km/h 4.2km/h
Wind Gust: 29km/h - -
Wind- - SW
Pressure: 1020.2 hPa 1018.8 hPa -
Precipitation: 0 mm    
Historical Graphs
 
 
Tabular Data for August 30, 2021
Time Temperature Dew Point Pressure Wind Wind Speed Wind Gust Humidity Rainfall Rate (Hourly) solar Conditions
00:00 11.9 °C 9.4 °C 1018.8 hPa East 1.6 km/h 4.8 km/h 85% 0 mm 0 W/m2
00:10 11.9 °C 9.4 °C 1018.8 hPa Calm   4.8 km/h 85% 0 mm 0 W/m2
00:20 11.8 °C 9.3 °C 1018.8 hPa East 1.6 km/h 4.8 km/h 85% 0 mm 0 W/m2
00:30 11.8 °C 9.3 °C 1018.8 hPa SE 3.2 km/h 4.8 km/h 85% 0 mm 0 W/m2
00:40 11.7 °C 9.3 °C 1018.8 hPa ESE 1.6 km/h 4.8 km/h 85% 0 mm 0 W/m2
00:50 11.7 °C 9.3 °C 1018.8 hPa East 1.6 km/h 4.8 km/h 85% 0 mm 0 W/m2
01:00 11.6 °C 9.2 °C 1018.8 hPa Calm   3.2 km/h 85% 0 mm 0 W/m2
01:10 11.6 °C 9.3 °C 1018.8 hPa Calm   3.2 km/h 86% 0 mm 0 W/m2
01:20 11.5 °C 9.6 °C 1018.8 hPa Calm   3.2 km/h 88% 0 mm 0 W/m2
01:30 11.5 °C 9.6 °C 1018.8 hPa Calm   3.2 km/h 88% 0 mm 0 W/m2
01:40 11.4 °C 9.5 °C 1018.8 hPa Calm   3.2 km/h 88% 0 mm 0 W/m2
01:50 11.3 °C 9.4 °C 1018.8 hPa Calm   3.2 km/h 88% 0 mm 0 W/m2
02:00 11.2 °C 9.3 °C 1018.8 hPa NNE 3.2 km/h 4.8 km/h 88% 0 mm 0 W/m2
02:10 11.2 °C 9.4 °C 1018.8 hPa Calm   3.2 km/h 89% 0 mm 0 W/m2
02:20 11.1 °C 9.3 °C 1018.8 hPa Calm   3.2 km/h 89% 0 mm 0 W/m2
02:30 11 °C 9.3 °C 1018.8 hPa NW 1.6 km/h 3.2 km/h 89% 0 mm 0 W/m2
02:40 10.9 °C 9.3 °C 1018.8 hPa Calm   3.2 km/h 90% 0 mm 0 W/m2
02:50 10.8 °C 9.1 °C 1018.8 hPa Calm   4.8 km/h 89% 0 mm 0 W/m2
03:00 10.8 °C 9.1 °C 1018.8 hPa Calm   1.6 km/h 89% 0 mm 0 W/m2
03:10 10.8 °C 9.2 °C 1018.8 hPa Calm   1.6 km/h 90% 0 mm 0 W/m2
03:20 10.7 °C 9.3 °C 1018.8 hPa SW 1.6 km/h 3.2 km/h 91% 0 mm 0 W/m2
03:30 10.6 °C 9.2 °C 1018.8 hPa Calm   1.6 km/h 91% 0 mm 0 W/m2
03:40 10.5 °C 9.4 °C 1018.8 hPa Calm   1.6 km/h 93% 0 mm 0 W/m2
03:50 10.5 °C 9.4 °C 1018.8 hPa Calm   4.8 km/h 93% 0 mm 0 W/m2
04:00 10.5 °C 9.4 °C 1018.8 hPa Calm   3.2 km/h 93% 0 mm 0 W/m2
04:10 10.5 °C 9.1 °C 1018.8 hPa SSW 3.2 km/h 8 km/h 91% 0 mm 0 W/m2
04:20 10.6 °C 9.4 °C 1018.8 hPa Calm   3.2 km/h 93% 0 mm 0 W/m2
04:30 10.5 °C 9.4 °C 1018.8 hPa West 1.6 km/h 3.2 km/h 93% 0 mm 0 W/m2
04:40 10.5 °C 9.6 °C 1018.8 hPa Calm   3.2 km/h 94% 0 mm 0 W/m2
04:50 10.4 °C 9.5 °C 1018.8 hPa Calm   3.2 km/h 94% 0 mm 0 W/m2
05:00 10.5 °C 9.6 °C 1018.8 hPa Calm   3.2 km/h 94% 0 mm 2 W/m2
05:10 10.5 °C 9.6 °C 1018.8 hPa Calm   3.2 km/h 94% 0 mm 5 W/m2
05:20 10.5 °C 9.7 °C 1018.8 hPa NW 1.6 km/h 3.2 km/h 95% 0 mm 11 W/m2
05:30 10.5 °C 9.7 °C 1019.2 hPa West 1.6 km/h 4.8 km/h 95% 0 mm 19 W/m2
05:40 10.5 °C 9.7 °C 1019.2 hPa West 3.2 km/h 4.8 km/h 95% 0 mm 25 W/m2
05:50 10.5 °C 9.7 °C 1019.2 hPa Calm   4.8 km/h 95% 0 mm 31 W/m2
06:00 10.5 °C 9.7 °C 1019.2 hPa WSW 1.6 km/h 4.8 km/h 95% 0 mm 44 W/m2
06:10 10.5 °C 9.9 °C 1019.2 hPa West 1.6 km/h 4.8 km/h 96% 0 mm 55 W/m2
06:20 10.6 °C 10 °C 1019.2 hPa Calm   3.2 km/h 96% 0 mm 69 W/m2
06:30 10.8 °C 10.2 °C 1019.2 hPa WNW 1.6 km/h 3.2 km/h 96% 0 mm 78 W/m2
06:40 10.9 °C 10.3 °C 1019.2 hPa Calm   4.8 km/h 96% 0 mm 93 W/m2
06:50 11 °C 10.2 °C 1019.2 hPa Calm   3.2 km/h 95% 0 mm 105 W/m2
07:00 11.2 °C 10.4 °C 1019.2 hPa Calm   1.6 km/h 95% 0 mm 120 W/m2
07:10 11.4 °C 10.6 °C 1019.5 hPa WSW 3.2 km/h 4.8 km/h 95% 0 mm 162 W/m2
07:20 11.7 °C 10.9 °C 1019.5 hPa SW 3.2 km/h 4.8 km/h 95% 0 mm 229 W/m2
07:30 12.1 °C 11.2 °C 1019.5 hPa NE 3.2 km/h 8 km/h 94% 0 mm 210 W/m2
07:40 12.4 °C 10.9 °C 1019.5 hPa North 1.6 km/h 6.4 km/h 91% 0 mm 217 W/m2
07:50 12.7 °C 11.1 °C 1019.9 hPa SW 3.2 km/h 8 km/h 90% 0 mm 153 W/m2
08:00 13.1 °C 10.6 °C 1019.9 hPa West 11.3 km/h 20.9 km/h 85% 0 mm 441 W/m2
08:10 13.4 °C 10.6 °C 1019.9 hPa West 11.3 km/h 22.5 km/h 83% 0 mm 413 W/m2
08:20 13.6 °C 10.4 °C 1019.5 hPa West 11.3 km/h 22.5 km/h 81% 0 mm 190 W/m2
08:30 13.9 °C 10.5 °C 1019.9 hPa WSW 8 km/h 19.3 km/h 80% 0 mm 512 W/m2
08:40 14.3 °C 10.7 °C 1019.9 hPa West 11.3 km/h 20.9 km/h 79% 0 mm 284 W/m2
08:50 14.4 °C 10.8 °C 1019.9 hPa West 14.5 km/h 24.1 km/h 79% 0 mm 263 W/m2
09:00 14.4 °C 10.6 °C 1019.9 hPa West 16.1 km/h 29 km/h 78% 0 mm 582 W/m2
09:10 14.8 °C 11 °C 1019.9 hPa WSW 12.9 km/h 24.1 km/h 78% 0 mm 695 W/m2
09:20 15.3 °C 11.3 °C 1019.9 hPa West 8 km/h 19.3 km/h 77% 0 mm 592 W/m2
09:30 15.6 °C 11.2 °C 1019.9 hPa WSW 14.5 km/h 24.1 km/h 75% 0 mm 604 W/m2
09:40 15.8 °C 11.4 °C 1019.9 hPa West 9.7 km/h 20.9 km/h 75% 0 mm 518 W/m2
09:50 15.8 °C 11.1 °C 1019.9 hPa WSW 11.3 km/h 20.9 km/h 74% 0 mm 542 W/m2
10:00 15.7 °C 11.3 °C 1019.9 hPa West 9.7 km/h 24.1 km/h 75% 0 mm 371 W/m2
10:10 15.6 °C 11 °C 1019.9 hPa West 8 km/h 17.7 km/h 74% 0 mm 444 W/m2
10:20 15.6 °C 11.2 °C 1019.9 hPa West 9.7 km/h 20.9 km/h 75% 0 mm 413 W/m2
10:30 15.5 °C 10.9 °C 1020.2 hPa West 11.3 km/h 20.9 km/h 74% 0 mm 450 W/m2
10:40 15.7 °C 11.2 °C 1020.2 hPa WSW 9.7 km/h 16.1 km/h 75% 0 mm 502 W/m2
10:50 15.8 °C 11.4 °C 1020.2 hPa West 9.7 km/h 14.5 km/h 75% 0 mm 652 W/m2
11:00 15.9 °C 11.1 °C 1020.2 hPa West 11.3 km/h 22.5 km/h 73% 0 mm 482 W/m2
11:10 15.7 °C 11.1 °C 1019.9 hPa West 11.3 km/h 22.5 km/h 74% 0 mm 463 W/m2
11:20 15.8 °C 11.2 °C 1019.9 hPa West 11.3 km/h 19.3 km/h 74% 0 mm 706 W/m2
11:30 16.1 °C 11.4 °C 1019.9 hPa WSW 12.9 km/h 20.9 km/h 74% 0 mm 563 W/m2
11:40 16.2 °C 11.6 °C 1019.9 hPa WSW 11.3 km/h 22.5 km/h 74% 0 mm 534 W/m2
11:50 16.1 °C 11.4 °C 1019.9 hPa WSW 4.8 km/h 19.3 km/h 74% 0 mm 406 W/m2
12:00 16 °C 11.4 °C 1019.9 hPa West 9.7 km/h 19.3 km/h 74% 0 mm 374 W/m2
12:10 15.6 °C 11.2 °C 1019.9 hPa West 11.3 km/h 20.9 km/h 75% 0 mm 207 W/m2
12:20 15.1 °C 10.9 °C 1019.9 hPa West 12.9 km/h 20.9 km/h 76% 0 mm 183 W/m2
12:30 14.7 °C 10.9 °C 1019.9 hPa West 8 km/h 17.7 km/h 78% 0 mm 137 W/m2
12:40 14.3 °C 10.7 °C 1019.9 hPa West 8 km/h 17.7 km/h 79% 0 mm 153 W/m2
12:50 14.2 °C 10.6 °C 1019.9 hPa West 4.8 km/h 16.1 km/h 79% 0 mm 169 W/m2
13:00 14.2 °C 10.8 °C 1019.9 hPa West 4.8 km/h 11.3 km/h 80% 0 mm 236 W/m2
13:10 14.3 °C 10.9 °C 1020.2 hPa West 3.2 km/h 11.3 km/h 80% 0 mm 197 W/m2
13:20 14.3 °C 10.9 °C 1020.2 hPa West 4.8 km/h 9.7 km/h 80% 0 mm 170 W/m2
13:30 14.2 °C 10.6 °C 1020.2 hPa WSW 8 km/h 16.1 km/h 79% 0 mm 215 W/m2
13:40 14.3 °C 10.9 °C 1020.2 hPa WSW 8 km/h 11.3 km/h 80% 0 mm 193 W/m2
13:50 14.2 °C 11 °C 1019.9 hPa WSW 8 km/h 11.3 km/h 81% 0 mm 184 W/m2
14:00 14.1 °C 10.9 °C 1019.9 hPa WSW 3.2 km/h 11.3 km/h 81% 0 mm 166 W/m2
14:10 14.1 °C 10.9 °C 1019.9 hPa WSW 1.6 km/h 8 km/h 81% 0 mm 191 W/m2
14:20 14.2 °C 11.2 °C 1019.9 hPa WNW 1.6 km/h 8 km/h 82% 0 mm 263 W/m2
14:30 14.3 °C 10.9 °C 1019.9 hPa WSW 4.8 km/h 9.7 km/h 80% 0 mm 213 W/m2
14:40 14.4 °C 11 °C 1019.9 hPa SW 3.2 km/h 8 km/h 80% 0 mm 198 W/m2
14:50 14.4 °C 11 °C 1019.9 hPa SSW 3.2 km/h 8 km/h 80% 0 mm 127 W/m2
15:00 14.4 °C 11.2 °C 1019.9 hPa SW 3.2 km/h 9.7 km/h 81% 0 mm 138 W/m2
15:10 14.3 °C 11.1 °C 1019.9 hPa SW 8 km/h 9.7 km/h 81% 0 mm 176 W/m2
15:20 14.3 °C 11.4 °C 1019.9 hPa SW 9.7 km/h 14.5 km/h 83% 0 mm 174 W/m2
15:30 14.1 °C 11.4 °C 1019.9 hPa SW 4.8 km/h 14.5 km/h 84% 0 mm 179 W/m2
15:40 14.1 °C 11.8 °C 1019.9 hPa SW 4.8 km/h 11.3 km/h 86% 0 mm 228 W/m2
15:50 14.1 °C 12.2 °C 1019.9 hPa South 1.6 km/h 11.3 km/h 88% 0 mm 237 W/m2
16:00 14.2 °C 11.9 °C 1019.9 hPa SSE 4.8 km/h 11.3 km/h 86% 0 mm 228 W/m2
16:10 14.1 °C 11.8 °C 1019.9 hPa South 3.2 km/h 14.5 km/h 86% 0 mm 198 W/m2
16:20 14.2 °C 11.9 °C 1019.5 hPa South 8 km/h 11.3 km/h 86% 0 mm 169 W/m2
16:30 14.1 °C 11.6 °C 1019.9 hPa SSE 4.8 km/h 9.7 km/h 85% 0 mm 130 W/m2
16:40 14 °C 11.5 °C 1019.5 hPa SSE 4.8 km/h 9.7 km/h 85% 0 mm 177 W/m2
16:50 14.2 °C 12.2 °C 1019.5 hPa SSE 4.8 km/h 11.3 km/h 88% 0 mm 330 W/m2
17:00 14.5 °C 12.6 °C 1019.2 hPa SSE 3.2 km/h 9.7 km/h 88% 0 mm 332 W/m2
17:10 14.9 °C 12.4 °C 1019.2 hPa SSW 4.8 km/h 11.3 km/h 85% 0 mm 312 W/m2
17:20 14.9 °C 12.2 °C 1019.2 hPa SSW 4.8 km/h 11.3 km/h 84% 0 mm 221 W/m2
17:30 14.8 °C 12.1 °C 1018.8 hPa SSW 4.8 km/h 9.7 km/h 84% 0 mm 197 W/m2
17:40 14.8 °C 11.9 °C 1018.8 hPa SSW 4.8 km/h 9.7 km/h 83% 0 mm 259 W/m2
17:50 14.8 °C 11.9 °C 1019.2 hPa SSW 4.8 km/h 9.7 km/h 83% 0 mm 168 W/m2
18:00 14.7 °C 11.8 °C 1019.2 hPa SSW 4.8 km/h 9.7 km/h 83% 0 mm 134 W/m2
18:10 14.6 °C 11.7 °C 1018.8 hPa SSW 3.2 km/h 9.7 km/h 83% 0 mm 155 W/m2
18:20 14.6 °C 11.7 °C 1018.8 hPa South 3.2 km/h 6.4 km/h 83% 0 mm 90 W/m2
18:30 14.4 °C 11.6 °C 1018.8 hPa SSE 3.2 km/h 9.7 km/h 83% 0 mm 93 W/m2
18:40 14.3 °C 11.4 °C 1018.8 hPa South 1.6 km/h 8 km/h 83% 0 mm 86 W/m2
18:50 14.3 °C 11.8 °C 1019.2 hPa SSE 3.2 km/h 8 km/h 85% 0 mm 55 W/m2
19:00 14.1 °C 11.6 °C 1018.8 hPa SSE 3.2 km/h 9.7 km/h 85% 0 mm 47 W/m2
19:10 14 °C 11.5 °C 1019.2 hPa SSE 3.2 km/h 8 km/h 85% 0 mm 39 W/m2
19:20 13.8 °C 11.2 °C 1018.8 hPa SSE 4.8 km/h 9.7 km/h 84% 0 mm 45 W/m2
19:30 13.8 °C 11.2 °C 1018.8 hPa SSE 8 km/h 9.7 km/h 84% 0 mm 37 W/m2
19:40 13.7 °C 11.1 °C 1018.8 hPa SSE 3.2 km/h 11.3 km/h 84% 0 mm 24 W/m2
19:50 13.6 °C 10.9 °C 1018.8 hPa SSE 3.2 km/h 6.4 km/h 84% 0 mm 12 W/m2
20:00 13.6 °C 10.9 °C 1018.8 hPa SSE 3.2 km/h 8 km/h 84% 0 mm 4 W/m2
20:10 13.4 °C 10.9 °C 1018.8 hPa SSE 4.8 km/h 8 km/h 85% 0 mm 0 W/m2
20:20 13.3 °C 10.8 °C 1018.8 hPa SSE 3.2 km/h 8 km/h 85% 0 mm 0 W/m2
20:30 13.2 °C 10.9 °C 1019.2 hPa SE 3.2 km/h 9.7 km/h 86% 0 mm 0 W/m2
20:40 13.1 °C 10.8 °C 1019.2 hPa SSE 3.2 km/h 9.7 km/h 86% 0 mm 0 W/m2
20:50 13 °C 10.7 °C 1019.2 hPa SE 1.6 km/h 8 km/h 86% 0 mm 0 W/m2
21:00 12.8 °C 10.8 °C 1019.2 hPa SSE 3.2 km/h 6.4 km/h 88% 0 mm 0 W/m2
21:10 12.7 °C 10.8 °C 1019.2 hPa SE 4.8 km/h 8 km/h 88% 0 mm 0 W/m2
21:20 12.5 °C 10.6 °C 1019.2 hPa SSE 3.2 km/h 8 km/h 88% 0 mm 0 W/m2
21:30 12.4 °C 10.4 °C 1019.2 hPa WSW 1.6 km/h 4.8 km/h 88% 0 mm 0 W/m2
21:40 12.2 °C 10.3 °C 1019.2 hPa East 3.2 km/h 6.4 km/h 88% 0 mm 0 W/m2
21:50 12 °C 10.1 °C 1019.5 hPa Calm   4.8 km/h 88% 0 mm 0 W/m2
22:00 11.8 °C 10.1 °C 1019.5 hPa Calm   3.2 km/h 89% 0 mm 0 W/m2
22:10 11.6 °C 10 °C 1019.2 hPa WSW 1.6 km/h 4.8 km/h 90% 0 mm 0 W/m2
22:20 11.4 °C 9.8 °C 1019.5 hPa South 1.6 km/h 3.2 km/h 90% 0 mm 0 W/m2
22:30 11.2 °C 9.6 °C 1019.5 hPa Calm   3.2 km/h 90% 0 mm 0 W/m2
22:40 11 °C 9.4 °C 1019.5 hPa SE 1.6 km/h 3.2 km/h 90% 0 mm 0 W/m2
22:50 10.8 °C 9.4 °C 1019.5 hPa WSW 1.6 km/h 4.8 km/h 91% 0 mm 0 W/m2
23:00 10.6 °C 9.2 °C 1019.5 hPa NNW 1.6 km/h 4.8 km/h 91% 0 mm 0 W/m2
23:10 10.4 °C 9.3 °C 1019.5 hPa Calm   3.2 km/h 93% 0 mm 0 W/m2
23:20 10.2 °C 9.1 °C 1019.5 hPa SW 1.6 km/h 3.2 km/h 93% 0 mm 0 W/m2
23:30 10 °C 8.9 °C 1019.5 hPa South 1.6 km/h 4.8 km/h 93% 0 mm 0 W/m2
23:40 9.9 °C 8.8 °C 1019.5 hPa WSW 1.6 km/h 3.2 km/h 93% 0 mm 0 W/m2
23:50 9.7 °C 8.8 °C 1019.2 hPa Calm   3.2 km/h 94% 0 mm 0 W/m2
Knjazevac, Serbia
Compliments of Weather Underground - 2 mb